Time;durP1;ratioP1;P1;durP2;ratioP2;P2;SDS_P1;SDS_P2;PMS_P1;PMS_P2;Temp;Humidity;BMP_temperature;BMP_pressure;BME280_temperature;BME280_humidity;BME280_pressure;Samples;Min_cycle;Max_cycle;Signal;HPM_P1;HPM_P2
2024/02/14 00:00:32;;;;;;;1.73;0.55;;;15.70;75.90;;;;;;5005378;28;20100;-78
2024/02/14 00:02:58;;;;;;;0.30;0.30;;;15.70;75.20;;;;;;5002705;28;20515;-78
2024/02/14 00:05:24;;;;;;;0.38;0.20;;;15.70;75.90;;;;;;5014356;28;20046;-78
2024/02/14 00:07:49;;;;;;;0.85;0.40;;;15.70;75.10;;;;;;4998435;28;20088;-78
2024/02/14 00:10:15;;;;;;;0.65;0.40;;;15.70;75.30;;;;;;5001263;28;22545;-79
2024/02/14 00:12:40;;;;;;;0.30;0.20;;;15.70;75.30;;;;;;5000433;28;20054;-78
2024/02/14 00:15:07;;;;;;;0.32;0.30;;;15.70;75.30;;;;;;5001275;28;20060;-78
2024/02/14 00:17:33;;;;;;;0.25;0.15;;;15.70;75.50;;;;;;5017203;28;20052;-77
2024/02/14 00:20:00;;;;;;;0.30;0.30;;;15.70;75.20;;;;;;5003522;28;20561;-77
2024/02/14 00:22:25;;;;;;;0.30;0.28;;;15.70;75.30;;;;;;5019060;28;20492;-77
2024/02/14 00:24:51;;;;;;;0.20;0.20;;;15.70;75.10;;;;;;5003046;28;20080;-77
2024/02/14 00:27:17;;;;;;;0.13;0.13;;;15.70;75.30;;;;;;5006957;28;20050;-77
2024/02/14 00:29:44;;;;;;;0.30;0.20;;;15.70;75.30;;;;;;5000529;28;20064;-77
2024/02/14 00:32:11;;;;;;;0.20;0.20;;;15.70;75.40;;;;;;5014849;28;20064;-77
2024/02/14 00:34:37;;;;;;;0.32;0.30;;;15.70;75.40;;;;;;5001434;28;20428;-77
2024/02/14 00:37:02;;;;;;;0.35;0.35;;;15.70;75.40;;;;;;5000905;28;20042;-77
2024/02/14 00:39:28;;;;;;;0.30;0.30;;;15.70;75.50;;;;;;5005162;28;20403;-77
2024/02/14 00:41:55;;;;;;;0.30;0.30;;;15.70;76.30;;;;;;5003862;28;20117;-76
2024/02/14 00:44:20;;;;;;;0.40;0.30;;;15.60;75.50;;;;;;5014525;28;20112;-76
2024/02/14 00:46:46;;;;;;;0.40;0.40;;;15.60;75.50;;;;;;5000489;28;20492;-76
2024/02/14 00:49:12;;;;;;;0.65;0.28;;;15.60;75.50;;;;;;4986645;28;20523;-76
2024/02/14 00:51:39;;;;;;;0.30;0.30;;;15.60;75.50;;;;;;5004485;28;20455;-76
2024/02/14 00:54:05;;;;;;;0.30;0.30;;;15.70;75.50;;;;;;5003655;28;20038;-76
2024/02/14 00:56:31;;;;;;;0.40;0.25;;;15.60;75.50;;;;;;5001259;28;20455;-76
2024/02/14 00:58:56;;;;;;;0.25;0.20;;;15.70;75.50;;;;;;5002441;28;20030;-76
2024/02/14 01:01:22;;;;;;;0.20;0.20;;;15.60;75.40;;;;;;5009316;28;20038;-76
2024/02/14 01:03:48;;;;;;;0.28;0.28;;;15.60;75.40;;;;;;5004040;28;20254;-76
2024/02/14 01:06:15;;;;;;;0.10;0.10;;;15.60;75.50;;;;;;4980213;28;20046;-75
2024/02/14 01:08:41;;;;;;;0.43;0.20;;;15.70;75.60;;;;;;5004819;28;20034;-76
2024/02/14 01:11:09;;;;;;;0.20;0.20;;;15.60;75.60;;;;;;5000310;28;22323;-76
2024/02/14 01:13:35;;;;;;;0.57;0.40;;;15.60;75.60;;;;;;5016214;28;20055;-76
2024/02/14 01:16:03;;;;;;;0.40;0.30;;;15.60;75.60;;;;;;5001081;28;20466;-76
2024/02/14 01:18:28;;;;;;;0.47;0.30;;;15.70;75.60;;;;;;4986760;28;20046;-76
2024/02/14 01:20:54;;;;;;;0.63;0.38;;;15.60;75.60;;;;;;4994521;28;20056;-76
2024/02/14 01:23:19;;;;;;;0.45;0.40;;;15.70;75.60;;;;;;5016357;28;20058;-76
2024/02/14 01:25:45;;;;;;;0.28;0.28;;;15.60;75.60;;;;;;5018718;28;20495;-76
2024/02/14 01:28:11;;;;;;;0.30;0.20;;;15.60;75.60;;;;;;5000703;28;20045;-76
2024/02/14 01:30:37;;;;;;;0.38;0.35;;;15.60;75.50;;;;;;5015299;28;20038;-76
2024/02/14 01:33:05;;;;;;;0.38;0.38;;;15.60;75.60;;;;;;5015497;28;20046;-76
2024/02/14 01:35:31;;;;;;;0.20;0.20;;;15.60;75.60;;;;;;5000408;28;20041;-76
2024/02/14 01:37:57;;;;;;;0.35;0.30;;;15.60;75.60;;;;;;5000424;28;20034;-76
2024/02/14 01:40:22;;;;;;;0.20;0.20;;;15.60;75.70;;;;;;5003279;28;20520;-76
2024/02/14 01:42:48;;;;;;;0.40;0.30;;;15.60;75.70;;;;;;5003457;28;20058;-76
2024/02/14 01:45:14;;;;;;;0.20;0.10;;;15.60;76.40;;;;;;5010805;28;20050;-76
2024/02/14 01:47:41;;;;;;;0.22;0.20;;;15.60;75.70;;;;;;5000797;28;20043;-76
2024/02/14 01:50:11;;;;;;;1.40;0.28;;;15.60;75.70;;;;;;4997342;28;20455;-76
2024/02/14 01:52:40;;;;;;;0.40;0.40;;;15.60;75.80;;;;;;5001768;28;20069;-76
2024/02/14 01:55:06;;;;;;;0.22;0.20;;;15.60;75.70;;;;;;5015131;28;20045;-76
2024/02/14 01:57:32;;;;;;;2.50;0.65;;;15.60;75.90;;;;;;4988904;28;20061;-76
2024/02/14 01:59:59;;;;;;;0.93;0.40;;;15.60;75.80;;;;;;5017564;28;20103;-76
2024/02/14 02:02:26;;;;;;;0.30;0.20;;;15.60;75.80;;;;;;5015580;28;20193;-76
2024/02/14 02:04:52;;;;;;;0.45;0.20;;;15.60;75.90;;;;;;5011157;28;20046;-76
2024/02/14 02:07:19;;;;;;;0.20;0.20;;;15.60;75.90;;;;;;4995909;28;20050;-76
2024/02/14 02:09:45;;;;;;;0.38;0.38;;;15.60;75.90;;;;;;5002756;28;20057;-76
2024/02/14 02:12:11;;;;;;;0.30;0.20;;;15.60;75.80;;;;;;4998842;28;20049;-76
2024/02/14 02:14:36;;;;;;;0.40;0.25;;;15.60;75.90;;;;;;5003148;28;20049;-76
2024/02/14 02:17:07;;;;;;;0.20;0.20;;;15.60;76.00;;;;;;4996389;28;20515;-76
2024/02/14 02:19:32;;;;;;;0.32;0.30;;;15.60;76.00;;;;;;5000957;28;20077;-76
2024/02/14 02:21:59;;;;;;;0.20;0.20;;;15.60;76.10;;;;;;5000774;28;20109;-76
2024/02/14 02:24:24;;;;;;;0.25;0.20;;;15.60;76.00;;;;;;5001821;28;20130;-76
2024/02/14 02:26:50;;;;;;;0.75;0.40;;;15.60;76.10;;;;;;4998492;28;20112;-76
2024/02/14 02:29:16;;;;;;;0.73;0.30;;;15.60;76.00;;;;;;5000859;28;20045;-76
2024/02/14 02:31:41;;;;;;;0.70;0.30;;;15.60;76.10;;;;;;4998011;28;20061;-76
2024/02/14 02:34:10;;;;;;;0.35;0.20;;;15.60;76.00;;;;;;5001820;28;20416;-76
2024/02/14 02:36:37;;;;;;;1.38;0.40;;;15.60;76.10;;;;;;5003986;28;20041;-76
2024/02/14 02:39:04;;;;;;;0.40;0.40;;;15.60;76.00;;;;;;5003899;28;20083;-76
2024/02/14 02:41:31;;;;;;;0.52;0.35;;;15.60;76.10;;;;;;5000011;28;20072;-76
2024/02/14 02:43:57;;;;;;;0.32;0.20;;;15.60;76.00;;;;;;5000586;28;20433;-76
2024/02/14 02:46:23;;;;;;;0.40;0.30;;;15.60;76.00;;;;;;5000343;28;20057;-76
2024/02/14 02:48:48;;;;;;;0.25;0.25;;;15.60;76.10;;;;;;5003354;28;20034;-76
2024/02/14 02:51:17;;;;;;;0.43;0.30;;;15.60;76.10;;;;;;5003819;28;20054;-76
2024/02/14 02:53:43;;;;;;;0.30;0.20;;;15.60;76.10;;;;;;5001917;28;20037;-76
2024/02/14 02:56:08;;;;;;;0.38;0.38;;;15.60;76.10;;;;;;5004568;28;20099;-76
2024/02/14 02:58:34;;;;;;;0.60;0.40;;;15.60;76.10;;;;;;5004189;28;20038;-76
2024/02/14 03:00:59;;;;;;;0.43;0.30;;;15.60;76.10;;;;;;5004767;28;20034;-76
2024/02/14 03:03:27;;;;;;;0.40;0.30;;;15.60;76.10;;;;;;5001992;28;20092;-76
2024/02/14 03:05:53;;;;;;;1.65;0.40;;;15.60;76.30;;;;;;5004373;28;20041;-76
2024/02/14 03:08:19;;;;;;;0.52;0.52;;;15.60;76.10;;;;;;5000877;28;20049;-76
2024/02/14 03:10:45;;;;;;;0.68;0.40;;;15.60;77.00;;;;;;5002520;28;20042;-76
2024/02/14 03:13:16;;;;;;;0.40;0.20;;;15.60;76.10;;;;;;5004370;28;20050;-76
2024/02/14 03:15:43;;;;;;;0.40;0.30;;;15.60;76.10;;;;;;5006524;28;20091;-76
2024/02/14 03:18:09;;;;;;;0.40;0.20;;;15.60;76.40;;;;;;4999490;28;20053;-76
2024/02/14 03:20:35;;;;;;;1.58;0.25;;;15.60;76.30;;;;;;5003008;28;20045;-76
2024/02/14 03:23:03;;;;;;;0.38;0.38;;;15.60;76.50;;;;;;5016036;28;20133;-76
2024/02/14 03:25:29;;;;;;;0.60;0.30;;;15.60;76.30;;;;;;5005168;28;20104;-76
2024/02/14 03:27:56;;;;;;;0.65;0.25;;;15.60;76.30;;;;;;5006229;28;20057;-76
2024/02/14 03:30:22;;;;;;;0.40;0.30;;;15.50;76.30;;;;;;5005842;28;20413;-76
2024/02/14 03:32:48;;;;;;;1.48;0.40;;;15.50;76.30;;;;;;5003345;28;20042;-76
2024/02/14 03:35:14;;;;;;;0.75;0.40;;;15.50;76.40;;;;;;5005085;28;20061;-76
2024/02/14 03:37:41;;;;;;;0.60;0.40;;;15.50;76.30;;;;;;5004855;28;20054;-76
2024/02/14 03:40:07;;;;;;;0.30;0.20;;;15.50;76.30;;;;;;5002080;28;20668;-76
2024/02/14 03:42:34;;;;;;;0.80;0.32;;;15.50;76.30;;;;;;5004569;28;20077;-76
2024/02/14 03:45:05;;;;;;;1.75;0.40;;;15.50;76.20;;;;;;5013968;28;20042;-76
2024/02/14 03:47:32;;;;;;;0.20;0.20;;;15.50;76.30;;;;;;5003299;28;20058;-76
2024/02/14 03:50:01;;;;;;;0.77;0.30;;;15.60;76.40;;;;;;5004589;28;20045;-76
2024/02/14 03:52:27;;;;;;;0.85;0.45;;;15.50;76.40;;;;;;5001949;28;20052;-76
2024/02/14 03:54:53;;;;;;;0.80;0.45;;;15.50;76.30;;;;;;5004793;28;20121;-76
2024/02/14 03:57:18;;;;;;;2.47;0.73;;;15.50;76.30;;;;;;5004218;28;20611;-76
2024/02/14 03:59:44;;;;;;;0.20;0.20;;;15.60;76.40;;;;;;5005196;28;20073;-76
2024/02/14 04:02:10;;;;;;;0.90;0.20;;;15.50;76.30;;;;;;4998978;28;20092;-76
2024/02/14 04:04:42;;;;;;;0.20;0.20;;;15.50;76.30;;;;;;5002921;28;20294;-76
2024/02/14 04:07:11;;;;;;;0.40;0.20;;;15.50;76.30;;;;;;5013376;28;20046;-76
2024/02/14 04:09:36;;;;;;;0.38;0.25;;;15.50;76.30;;;;;;5007253;28;20058;-76
2024/02/14 04:12:02;;;;;;;0.80;0.55;;;15.50;76.30;;;;;;5016721;28;20103;-76
2024/02/14 04:14:28;;;;;;;0.85;0.30;;;15.50;76.30;;;;;;4998722;28;20883;-76
2024/02/14 04:16:54;;;;;;;0.57;0.32;;;15.50;76.40;;;;;;5002712;28;20038;-76
2024/02/14 04:19:19;;;;;;;1.10;0.40;;;15.50;76.40;;;;;;5001657;28;20061;-76
2024/02/14 04:21:46;;;;;;;0.60;0.30;;;15.50;76.30;;;;;;5004959;28;20112;-76
2024/02/14 04:24:12;;;;;;;0.45;0.35;;;15.50;76.40;;;;;;5016874;28;20080;-76
2024/02/14 04:26:37;;;;;;;0.28;0.17;;;15.50;76.30;;;;;;5000998;28;20125;-76
2024/02/14 04:29:03;;;;;;;0.55;0.30;;;15.50;76.30;;;;;;5002473;28;20053;-76
2024/02/14 04:31:31;;;;;;;0.77;0.20;;;15.50;76.30;;;;;;4970389;28;20045;-76
2024/02/14 04:33:57;;;;;;;0.80;0.22;;;15.50;76.40;;;;;;5004515;28;20128;-76
2024/02/14 04:36:23;;;;;;;0.30;0.20;;;15.50;76.40;;;;;;5015862;28;20627;-76
2024/02/14 04:38:49;;;;;;;0.20;0.20;;;15.50;76.40;;;;;;5001747;28;20037;-76
2024/02/14 04:41:14;;;;;;;0.52;0.20;;;15.50;76.40;;;;;;5003131;28;20045;-76
2024/02/14 04:43:40;;;;;;;0.52;0.38;;;15.50;76.40;;;;;;5017053;28;20042;-76
2024/02/14 04:46:07;;;;;;;1.05;0.50;;;15.50;76.40;;;;;;5015415;28;20046;-76
2024/02/14 04:48:35;;;;;;;1.20;0.30;;;15.50;76.50;;;;;;4997227;28;20121;-76
2024/02/14 04:51:01;;;;;;;0.32;0.20;;;15.50;76.40;;;;;;5015111;28;20052;-76
2024/02/14 04:53:27;;;;;;;1.10;0.28;;;15.50;76.50;;;;;;5002312;28;20049;-77
2024/02/14 04:55:53;;;;;;;0.73;0.38;;;15.50;77.20;;;;;;5016754;28;20042;-76
2024/02/14 04:58:19;;;;;;;0.70;0.20;;;15.50;76.50;;;;;;5001456;28;20133;-76
2024/02/14 05:00:44;;;;;;;0.40;0.20;;;15.50;76.40;;;;;;5002740;28;20512;-76
2024/02/14 05:03:10;;;;;;;1.15;0.57;;;15.50;76.50;;;;;;5001193;28;20526;-76
2024/02/14 05:05:36;;;;;;;0.10;0.10;;;15.50;76.40;;;;;;4999793;28;20052;-76
2024/02/14 05:08:02;;;;;;;0.40;0.30;;;15.50;76.60;;;;;;5003895;28;20042;-76
2024/02/14 05:10:28;;;;;;;1.02;0.32;;;15.50;76.50;;;;;;5017413;28;20423;-76
2024/02/14 05:12:54;;;;;;;0.55;0.20;;;15.50;76.60;;;;;;4984747;28;20061;-76
2024/02/14 05:15:19;;;;;;;0.45;0.25;;;15.50;76.50;;;;;;5001215;28;20124;-76
2024/02/14 05:17:45;;;;;;;0.68;0.47;;;15.50;76.60;;;;;;5018848;28;20052;-76
2024/02/14 05:20:11;;;;;;;0.43;0.20;;;15.50;76.60;;;;;;5013346;28;20125;-76
2024/02/14 05:22:37;;;;;;;1.08;0.63;;;15.50;76.50;;;;;;5001517;28;20056;-76
2024/02/14 05:25:04;;;;;;;0.40;0.20;;;15.50;76.50;;;;;;4982989;28;20044;-77
2024/02/14 05:27:30;;;;;;;0.10;0.10;;;15.50;76.60;;;;;;5003601;28;20388;-76
2024/02/14 05:29:56;;;;;;;0.60;0.30;;;15.50;76.60;;;;;;4984029;28;20038;-76
2024/02/14 05:32:21;;;;;;;0.30;0.20;;;15.50;76.60;;;;;;5016592;28;20065;-76
2024/02/14 05:34:47;;;;;;;0.57;0.30;;;15.50;76.70;;;;;;5017795;28;20065;-76
2024/02/14 05:37:12;;;;;;;0.50;0.30;;;15.50;76.60;;;;;;5015806;28;20056;-76
2024/02/14 05:39:39;;;;;;;0.52;0.30;;;15.50;76.60;;;;;;5011900;28;20073;-76
2024/02/14 05:42:05;;;;;;;0.50;0.20;;;15.50;76.80;;;;;;5015284;28;20087;-76
2024/02/14 05:44:31;;;;;;;0.60;0.38;;;15.50;76.70;;;;;;5013444;28;20584;-76
2024/02/14 05:46:56;;;;;;;0.68;0.30;;;15.50;76.80;;;;;;5002096;28;20117;-76
2024/02/14 05:49:22;;;;;;;0.55;0.30;;;15.50;76.70;;;;;;4997147;28;20524;-76
2024/02/14 05:51:48;;;;;;;0.38;0.20;;;15.50;76.60;;;;;;5001494;28;20540;-76
2024/02/14 05:54:13;;;;;;;0.50;0.40;;;15.50;76.50;;;;;;4987946;28;20084;-76
2024/02/14 05:56:39;;;;;;;0.57;0.43;;;15.50;76.70;;;;;;4999799;28;20495;-76
2024/02/14 05:59:04;;;;;;;0.80;0.40;;;15.50;76.70;;;;;;5016388;28;20431;-76
2024/02/14 06:01:30;;;;;;;0.50;0.40;;;15.50;76.70;;;;;;5001323;28;20058;-76
2024/02/14 06:03:55;;;;;;;0.45;0.32;;;15.50;76.70;;;;;;5017577;28;20049;-76
2024/02/14 06:06:21;;;;;;;0.65;0.30;;;15.50;76.80;;;;;;5000968;28;20487;-76
2024/02/14 06:08:47;;;;;;;0.50;0.50;;;15.50;76.70;;;;;;5000408;28;20050;-76
2024/02/14 06:11:14;;;;;;;1.00;0.20;;;15.50;76.60;;;;;;5006340;28;20046;-76
2024/02/14 06:13:39;;;;;;;0.47;0.28;;;15.50;76.70;;;;;;5004137;28;20048;-76
2024/02/14 06:16:05;;;;;;;0.57;0.30;;;15.50;76.70;;;;;;5000519;28;20424;-76
2024/02/14 06:18:31;;;;;;;0.57;0.32;;;15.50;76.70;;;;;;5006402;28;20058;-76
2024/02/14 06:20:56;;;;;;;0.75;0.40;;;15.50;76.70;;;;;;4998680;28;20088;-76
2024/02/14 06:23:22;;;;;;;0.50;0.30;;;15.50;76.60;;;;;;5018490;28;20049;-76
2024/02/14 06:25:47;;;;;;;0.80;0.45;;;15.50;76.60;;;;;;5020489;28;20049;-76
2024/02/14 06:28:13;;;;;;;0.50;0.38;;;15.50;76.70;;;;;;5005650;28;20045;-76
2024/02/14 06:30:38;;;;;;;0.60;0.25;;;15.50;76.50;;;;;;5007455;28;20088;-76
2024/02/14 06:33:04;;;;;;;0.80;0.30;;;15.50;76.70;;;;;;5019742;28;20052;-76
2024/02/14 06:35:30;;;;;;;0.35;0.20;;;15.50;76.70;;;;;;5015028;28;20165;-76
2024/02/14 06:37:55;;;;;;;0.60;0.30;;;15.50;76.70;;;;;;4668270;28;10000019;-77
2024/02/14 06:40:22;;;;;;;1.02;0.40;;;15.50;76.70;;;;;;4998882;28;20034;-77
2024/02/14 06:42:50;;;;;;;0.80;0.20;;;15.50;76.50;;;;;;5002535;28;20085;-77
2024/02/14 06:45:16;;;;;;;0.55;0.30;;;15.60;76.50;;;;;;5001269;28;20073;-77
2024/02/14 06:47:41;;;;;;;1.17;0.50;;;15.60;76.50;;;;;;5000855;28;20043;-77
2024/02/14 06:50:08;;;;;;;0.40;0.30;;;15.60;76.60;;;;;;4997767;28;20046;-77
2024/02/14 06:52:33;;;;;;;0.30;0.20;;;15.60;76.50;;;;;;5002723;28;20150;-77
2024/02/14 06:54:59;;;;;;;0.70;0.47;;;15.60;76.60;;;;;;5015205;28;20511;-77
2024/02/14 06:57:25;;;;;;;0.82;0.20;;;15.60;76.60;;;;;;4985823;28;20042;-77
2024/02/14 06:59:51;;;;;;;0.50;0.38;;;15.60;76.60;;;;;;5001454;28;20045;-77
2024/02/14 07:02:17;;;;;;;0.25;0.25;;;15.60;76.50;;;;;;5000298;28;20447;-77
2024/02/14 07:04:42;;;;;;;0.88;0.28;;;15.60;76.50;;;;;;5000111;28;20132;-76
2024/02/14 07:07:08;;;;;;;0.20;0.20;;;15.60;77.20;;;;;;5016245;28;20042;-77
2024/02/14 07:09:35;;;;;;;1.25;0.40;;;15.60;77.10;;;;;;5002762;28;20520;-77
2024/02/14 07:12:01;;;;;;;0.80;0.17;;;15.60;76.20;;;;;;5000407;28;20049;-76
2024/02/14 07:14:28;;;;;;;0.68;0.20;;;15.60;76.30;;;;;;5016192;28;20052;-77
2024/02/14 07:16:53;;;;;;;0.20;0.10;;;15.60;76.90;;;;;;5001469;28;20137;-77
2024/02/14 07:19:19;;;;;;;0.68;0.25;;;15.60;75.90;;;;;;4980786;28;20038;-76
2024/02/14 07:21:45;;;;;;;0.30;0.20;;;15.60;76.20;;;;;;5028312;28;20042;-75
2024/02/14 07:24:10;;;;;;;0.22;0.10;;;15.60;75.90;;;;;;4998884;28;20123;-75
2024/02/14 07:26:36;;;;;;;3.50;0.38;;;15.60;76.70;;;;;;4999361;28;20168;-75
2024/02/14 07:29:03;;;;;;;0.90;0.35;;;15.60;75.90;;;;;;4997533;28;20074;-76
2024/02/14 07:31:34;;;;;;;0.38;0.30;;;15.60;75.90;;;;;;5013964;28;20054;-75
2024/02/14 07:34:00;;;;;;;1.65;0.20;;;15.60;75.80;;;;;;5000659;28;20045;-75
2024/02/14 07:36:26;;;;;;;0.63;0.20;;;15.70;75.70;;;;;;4996723;28;20523;-76
2024/02/14 07:38:51;;;;;;;1.73;0.60;;;15.60;76.70;;;;;;5015699;28;20046;-77
2024/02/14 07:41:17;;;;;;;0.32;0.10;;;15.70;75.40;;;;;;5001423;28;20053;-77
2024/02/14 07:43:42;;;;;;;0.88;0.30;;;15.70;75.40;;;;;;5014189;28;20085;-76
2024/02/14 07:46:08;;;;;;;0.70;0.45;;;15.70;75.60;;;;;;4999359;28;20093;-77
2024/02/14 07:48:34;;;;;;;1.55;0.28;;;15.70;75.40;;;;;;5000558;28;20502;-77
2024/02/14 07:50:59;;;;;;;0.93;0.20;;;15.70;75.10;;;;;;4999882;28;20579;-76
2024/02/14 07:53:25;;;;;;;1.55;0.30;;;15.70;75.70;;;;;;5000872;28;20593;-76
2024/02/14 07:55:52;;;;;;;0.10;0.10;;;15.70;75.50;;;;;;5017236;28;20050;-76
2024/02/14 07:58:18;;;;;;;0.55;0.20;;;15.70;75.30;;;;;;5005117;28;20050;-76
2024/02/14 08:00:43;;;;;;;0.50;0.40;;;15.80;74.90;;;;;;5003152;28;20484;-76
2024/02/14 08:03:09;;;;;;;0.63;0.28;;;15.80;75.00;;;;;;5014398;28;20061;-76
2024/02/14 08:05:34;;;;;;;0.57;0.30;;;15.80;75.10;;;;;;4999802;28;20584;-76
2024/02/14 08:08:00;;;;;;;0.43;0.22;;;15.70;75.30;;;;;;5000074;28;20149;-76
2024/02/14 08:10:26;;;;;;;0.57;0.30;;;15.70;75.50;;;;;;4999419;28;20069;-76
2024/02/14 08:12:51;;;;;;;0.30;0.20;;;15.70;75.40;;;;;;5006441;28;20452;-76
2024/02/14 08:15:17;;;;;;;0.68;0.35;;;15.70;75.40;;;;;;5005436;28;21564;-76
2024/02/14 08:17:43;;;;;;;2.15;0.28;;;15.70;76.30;;;;;;5002861;28;20057;-76
2024/02/14 08:20:08;;;;;;;0.50;0.28;;;15.70;75.30;;;;;;5003381;28;20065;-76
2024/02/14 08:22:34;;;;;;;0.88;0.40;;;15.70;75.50;;;;;;4987655;28;20038;-76
2024/02/14 08:25:00;;;;;;;1.77;0.40;;;15.70;75.50;;;;;;5019054;28;20076;-76
2024/02/14 08:27:26;;;;;;;0.50;0.20;;;15.70;75.50;;;;;;4992944;28;20034;-76
2024/02/14 08:29:51;;;;;;;0.80;0.30;;;15.70;75.30;;;;;;4997861;28;20042;-77
2024/02/14 08:32:17;;;;;;;0.38;0.28;;;15.70;75.40;;;;;;4997527;28;20049;-76
2024/02/14 08:34:43;;;;;;;1.98;0.20;;;15.70;75.30;;;;;;5013613;28;20111;-76
2024/02/14 08:37:08;;;;;;;0.80;0.40;;;15.70;75.50;;;;;;5012918;28;20046;-77
2024/02/14 08:39:34;;;;;;;0.52;0.30;;;15.70;75.50;;;;;;5021130;28;20515;-77
2024/02/14 08:42:03;;;;;;;0.98;0.40;;;15.70;75.50;;;;;;5014508;28;20507;-77
2024/02/14 08:44:28;;;;;;;1.02;0.32;;;15.70;75.50;;;;;;5002836;28;20053;-76
2024/02/14 08:46:54;;;;;;;0.63;0.40;;;15.70;75.50;;;;;;4999524;28;20423;-76
2024/02/14 08:49:20;;;;;;;0.32;0.17;;;15.70;75.40;;;;;;5002257;28;20411;-77
2024/02/14 08:51:47;;;;;;;0.40;0.25;;;15.70;75.40;;;;;;5017139;28;20050;-76
2024/02/14 08:54:13;;;;;;;0.32;0.28;;;15.70;75.40;;;;;;4982575;28;20039;-77
2024/02/14 08:56:39;;;;;;;0.85;0.43;;;15.70;75.30;;;;;;4986040;28;20472;-77
2024/02/14 08:59:06;;;;;;;1.15;0.30;;;15.80;75.10;;;;;;5001733;28;20044;-77
2024/02/14 09:01:32;;;;;;;2.88;0.50;;;15.70;75.20;;;;;;5002178;28;20041;-77
2024/02/14 09:03:58;;;;;;;0.75;0.30;;;15.70;75.40;;;;;;5002176;28;20396;-77
2024/02/14 09:06:24;;;;;;;0.38;0.38;;;15.70;75.40;;;;;;5015408;28;20065;-79
2024/02/14 09:08:56;;;;;;;0.20;0.20;;;15.70;75.40;;;;;;5018172;28;20192;-76
2024/02/14 09:11:22;;;;;;;0.35;0.30;;;15.70;75.40;;;;;;5013519;28;20125;-76
2024/02/14 09:13:49;;;;;;;0.47;0.40;;;15.70;75.30;;;;;;5001370;28;20061;-76
2024/02/14 09:16:17;;;;;;;0.63;0.30;;;15.80;75.40;;;;;;5015431;28;20042;-76
2024/02/14 09:18:45;;;;;;;1.33;0.52;;;15.70;75.20;;;;;;4998590;28;20540;-76
2024/02/14 09:21:11;;;;;;;0.30;0.30;;;15.70;75.30;;;;;;5016193;28;20084;-76
2024/02/14 09:23:39;;;;;;;0.52;0.30;;;15.70;75.20;;;;;;5014546;28;20046;-76
2024/02/14 09:26:05;;;;;;;0.70;0.40;;;15.80;75.30;;;;;;5002145;28;20037;-77
2024/02/14 09:28:33;;;;;;;0.47;0.30;;;15.70;75.30;;;;;;5000271;28;20459;-77
2024/02/14 09:30:58;;;;;;;0.10;0.10;;;15.70;75.20;;;;;;5018474;28;20053;-76
2024/02/14 09:33:24;;;;;;;0.65;0.40;;;15.70;76.00;;;;;;4986586;28;20046;-76
2024/02/14 09:35:51;;;;;;;0.47;0.28;;;15.70;75.50;;;;;;5003483;28;20061;-77
2024/02/14 09:38:17;;;;;;;0.40;0.38;;;15.70;75.40;;;;;;5002834;28;20041;-77
2024/02/14 09:40:43;;;;;;;0.35;0.25;;;15.70;75.30;;;;;;5002717;28;20042;-77
2024/02/14 09:43:16;;;;;;;0.38;0.30;;;15.80;75.40;;;;;;5014606;28;20050;-77
2024/02/14 09:45:42;;;;;;;0.40;0.40;;;15.70;75.40;;;;;;4993321;28;20047;-76
2024/02/14 09:48:08;;;;;;;0.50;0.40;;;15.70;75.50;;;;;;5020006;28;20045;-77
2024/02/14 09:50:33;;;;;;;0.52;0.30;;;15.70;75.40;;;;;;5006605;28;20026;-77
2024/02/14 09:52:59;;;;;;;0.52;0.20;;;15.70;75.50;;;;;;5005888;28;20128;-77
2024/02/14 09:55:26;;;;;;;0.93;0.38;;;15.80;75.10;;;;;;5018721;28;20264;-78
2024/02/14 09:57:51;;;;;;;0.40;0.20;;;15.80;75.10;;;;;;5004071;28;20042;-77
2024/02/14 10:00:17;;;;;;;0.60;0.47;;;15.80;75.10;;;;;;4989625;28;20061;-78
2024/02/14 10:02:43;;;;;;;0.63;0.20;;;15.80;75.10;;;;;;4987683;28;20586;-78
2024/02/14 10:05:09;;;;;;;0.60;0.40;;;15.80;75.10;;;;;;5001273;28;20077;-78
2024/02/14 10:07:43;;;;;;;0.43;0.30;;;15.80;75.20;;;;;;5019352;28;20121;-77
2024/02/14 10:10:09;;;;;;;0.30;0.10;;;15.80;74.70;;;;;;5005611;28;20058;-78
2024/02/14 10:12:35;;;;;;;0.68;0.30;;;15.90;74.80;;;;;;5006014;28;20141;-78
2024/02/14 10:15:04;;;;;;;0.52;0.30;;;15.90;74.60;;;;;;5005379;28;20204;-78
2024/02/14 10:17:30;;;;;;;0.77;0.40;;;16.00;74.60;;;;;;5004325;28;20045;-77
2024/02/14 10:19:59;;;;;;;0.60;0.30;;;16.00;74.40;;;;;;5004526;28;20050;-77
2024/02/14 10:22:27;;;;;;;0.32;0.20;;;16.00;74.10;;;;;;5005279;28;20042;-78
2024/02/14 10:24:53;;;;;;;0.70;0.35;;;16.00;74.30;;;;;;5004199;28;20045;-78
2024/02/14 10:27:20;;;;;;;0.60;0.30;;;16.00;74.40;;;;;;5005935;28;20042;-78
2024/02/14 10:29:46;;;;;;;0.70;0.28;;;16.00;74.30;;;;;;5021097;28;20038;-78
2024/02/14 10:32:15;;;;;;;0.20;0.20;;;16.00;74.40;;;;;;5005239;28;20054;-79
2024/02/14 10:34:41;;;;;;;0.70;0.20;;;16.00;74.50;;;;;;5019761;28;20045;-78
2024/02/14 10:37:06;;;;;;;0.68;0.40;;;16.00;75.30;;;;;;5006168;28;20430;-78
2024/02/14 10:39:32;;;;;;;0.40;0.20;;;16.10;74.30;;;;;;4988803;28;20057;-78
2024/02/14 10:41:57;;;;;;;0.77;0.25;;;16.10;74.50;;;;;;4988657;28;20184;-77
2024/02/14 10:44:23;;;;;;;0.52;0.20;;;16.10;74.20;;;;;;5016434;28;20056;-78
2024/02/14 10:46:49;;;;;;;0.47;0.35;;;16.00;74.10;;;;;;5005286;28;20145;-78
2024/02/14 10:49:16;;;;;;;0.52;0.30;;;16.00;74.50;;;;;;5021349;28;20049;-78
2024/02/14 10:51:41;;;;;;;0.60;0.30;;;16.00;74.50;;;;;;5018580;28;20092;-77
2024/02/14 10:54:10;;;;;;;0.30;0.30;;;16.00;74.40;;;;;;5018046;28;20050;-78
2024/02/14 10:56:39;;;;;;;0.40;0.35;;;16.10;74.30;;;;;;5006572;28;20108;-78
2024/02/14 10:59:05;;;;;;;0.60;0.40;;;16.10;74.40;;;;;;5017277;28;20172;-78
2024/02/14 11:01:32;;;;;;;0.75;0.30;;;16.10;74.10;;;;;;4974947;28;20324;-77
2024/02/14 11:03:59;;;;;;;1.05;0.25;;;16.10;74.20;;;;;;5018353;28;20050;-80
2024/02/14 11:06:24;;;;;;;0.40;0.28;;;16.10;74.00;;;;;;5022422;28;20050;-78
2024/02/14 11:08:57;;;;;;;0.90;0.50;;;16.10;74.20;;;;;;5003751;28;20675;-79
2024/02/14 11:11:23;;;;;;;0.75;0.30;;;16.10;74.60;;;;;;5016477;28;20042;-77
2024/02/14 11:13:52;;;;;;;0.40;0.30;;;16.10;74.70;;;;;;5016777;28;20049;-77
2024/02/14 11:16:18;;;;;;;2.50;0.30;;;16.10;74.60;;;;;;5002290;28;20559;-77
2024/02/14 11:18:44;;;;;;;0.43;0.22;;;16.10;74.70;;;;;;5003619;28;20176;-77
2024/02/14 11:21:18;;;;;;;0.77;0.50;;;16.10;75.40;;;;;;5002720;28;20508;-77
2024/02/14 11:23:54;;;;;;;0.82;0.30;;;16.10;74.70;;;;;;4998273;28;20121;-77
2024/02/14 11:26:19;;;;;;;0.30;0.20;;;16.10;74.70;;;;;;4998957;28;20126;-77
2024/02/14 11:28:47;;;;;;;1.95;0.32;;;16.10;74.60;;;;;;5002401;28;20124;-77
2024/02/14 11:31:12;;;;;;;0.52;0.30;;;16.10;74.70;;;;;;5018589;28;20421;-77
2024/02/14 11:33:38;;;;;;;0.77;0.30;;;16.00;74.50;;;;;;4986453;28;20504;-77
2024/02/14 11:36:10;;;;;;;0.50;0.20;;;16.10;74.40;;;;;;5005872;28;20045;-77
2024/02/14 11:38:36;;;;;;;2.03;0.45;;;16.10;74.70;;;;;;5018724;28;20046;-77
2024/02/14 11:41:03;;;;;;;0.43;0.30;;;16.10;74.30;;;;;;5002598;28;20527;-79
2024/02/14 11:43:29;;;;;;;0.60;0.40;;;16.10;74.30;;;;;;5016893;28;20057;-77
2024/02/14 11:45:54;;;;;;;0.68;0.45;;;16.10;74.20;;;;;;5004342;28;20050;-77
2024/02/14 11:48:20;;;;;;;0.40;0.30;;;16.10;74.40;;;;;;5001896;28;20042;-77
2024/02/14 11:50:46;;;;;;;1.17;0.50;;;16.10;74.20;;;;;;5015385;28;20069;-77
2024/02/14 11:53:13;;;;;;;0.45;0.30;;;16.10;74.20;;;;;;5003359;28;20056;-77
2024/02/14 11:55:39;;;;;;;0.30;0.20;;;16.10;74.50;;;;;;5004218;28;20129;-77
2024/02/14 11:58:10;;;;;;;0.57;0.30;;;16.10;74.00;;;;;;5019678;28;20129;-77
2024/02/14 12:00:37;;;;;;;0.28;0.10;;;16.10;74.00;;;;;;5006349;28;20042;-77
2024/02/14 12:03:06;;;;;;;0.30;0.20;;;16.10;74.00;;;;;;4999908;28;20195;-77
2024/02/14 12:05:33;;;;;;;0.73;0.40;;;16.10;74.20;;;;;;5015206;28;20061;-77
2024/02/14 12:07:59;;;;;;;0.98;0.75;;;16.10;74.00;;;;;;5013273;28;20050;-77
2024/02/14 12:10:25;;;;;;;0.30;0.30;;;16.10;74.00;;;;;;5011682;28;20038;-77
2024/02/14 12:12:50;;;;;;;0.95;0.20;;;16.10;74.10;;;;;;5020287;28;20381;-79
2024/02/14 12:15:16;;;;;;;0.63;0.40;;;16.10;74.10;;;;;;4988297;28;20050;-79
2024/02/14 12:17:42;;;;;;;0.45;0.40;;;16.10;74.20;;;;;;5004157;28;20046;-79
2024/02/14 12:20:13;;;;;;;1.55;0.73;;;16.10;74.00;;;;;;5004926;28;20041;-79
2024/02/14 12:22:40;;;;;;;1.95;0.40;;;16.10;73.80;;;;;;5014462;28;20491;-79
2024/02/14 12:25:06;;;;;;;0.85;0.32;;;16.10;73.70;;;;;;5003644;28;20042;-79
2024/02/14 12:27:35;;;;;;;0.45;0.30;;;16.10;74.50;;;;;;5020401;28;20077;-78
2024/02/14 12:30:09;;;;;;;0.75;0.60;;;16.10;76.00;;;;;;5002138;28;20073;-79
2024/02/14 12:32:35;;;;;;;0.85;0.85;;;16.10;78.20;;;;;;4987644;28;20076;-78
2024/02/14 12:35:01;;;;;;;1.67;1.25;;;16.10;78.70;;;;;;4995966;28;20065;-78
2024/02/14 12:37:26;;;;;;;1.23;1.10;;;16.10;81.90;;;;;;5015970;28;20503;-80
2024/02/14 12:39:53;;;;;;;1.10;0.90;;;16.00;81.30;;;;;;4987814;28;20529;-80